Time;durP1;ratioP1;P1;durP2;ratioP2;P2;SDS_P1;SDS_P2;PMS_P1;PMS_P2;Temp;Humidity;BMP_temperature;BMP_pressure;BME280_temperature;BME280_humidity;BME280_pressure;Samples;Min_cycle;Max_cycle;Signal;HPM_P1;HPM_P2
2023/04/19 00:01:01;;;;;;;7.18;6.47;;;;;;;8.56;80.97;102775.03;4997007;28;20393;-77
2023/04/19 00:03:27;;;;;;;7.88;7.07;;;;;;;8.54;81.08;102772.41;4994041;28;20117;-77
2023/04/19 00:05:57;;;;;;;7.95;7.15;;;;;;;8.52;81.27;102771.56;4995672;28;20053;-77
2023/04/19 00:08:23;;;;;;;7.82;7.13;;;;;;;8.51;81.35;102771.56;4997553;28;20046;-77
2023/04/19 00:10:49;;;;;;;8.50;7.63;;;;;;;8.51;81.45;102764.56;4995380;28;20068;-77
2023/04/19 00:13:14;;;;;;;7.95;7.15;;;;;;;8.48;81.69;102767.22;4996826;28;20333;-77
2023/04/19 00:15:40;;;;;;;8.65;7.43;;;;;;;8.46;81.32;102771.56;4995349;28;20100;-77
2023/04/19 00:18:05;;;;;;;7.22;6.50;;;;;;;8.43;81.70;102763.72;4996311;28;20042;-77
2023/04/19 00:20:30;;;;;;;8.27;6.65;;;;;;;8.40;81.67;102763.69;4994113;28;20046;-77
2023/04/19 00:22:57;;;;;;;8.43;6.82;;;;;;;8.39;82.03;102767.19;4997389;28;20046;-77
2023/04/19 00:25:23;;;;;;;9.25;7.25;;;;;;;8.40;82.12;102766.31;4995264;28;20058;-77
2023/04/19 00:27:49;;;;;;;9.55;6.93;;;;;;;8.37;82.25;102761.09;4989958;28;20081;-77
2023/04/19 00:30:14;;;;;;;7.57;6.88;;;;;;;8.35;82.05;102757.59;4995926;28;20094;-77
2023/04/19 00:32:39;;;;;;;10.38;8.00;;;;;;;8.34;82.53;102761.09;4994709;28;20069;-77
2023/04/19 00:35:05;;;;;;;8.20;7.38;;;;;;;8.31;82.42;102756.72;4993574;28;20068;-77
2023/04/19 00:37:31;;;;;;;8.73;7.22;;;;;;;8.26;82.76;102759.34;4995656;28;20046;-77
2023/04/19 00:39:56;;;;;;;10.93;7.93;;;;;;;8.26;82.84;102758.50;4992000;28;20038;-77
2023/04/19 00:42:21;;;;;;;8.75;7.40;;;;;;;8.26;83.03;102758.50;4993696;28;20046;-77
2023/04/19 00:44:47;;;;;;;7.88;6.93;;;;;;;8.29;83.42;102758.47;4995795;28;20049;-77
2023/04/19 00:47:13;;;;;;;8.20;7.40;;;;;;;8.28;83.45;102756.75;4994739;28;20046;-77
2023/04/19 00:49:39;;;;;;;8.43;7.55;;;;;;;8.29;83.03;102750.63;4996495;28;20038;-77
2023/04/19 00:52:06;;;;;;;8.57;7.78;;;;;;;8.26;83.18;102751.53;4996251;28;20064;-77
2023/04/19 00:54:32;;;;;;;8.32;7.10;;;;;;;8.26;83.27;102755.88;4995197;28;20274;-77
2023/04/19 00:56:57;;;;;;;10.45;7.80;;;;;;;8.21;83.53;102745.44;4996307;28;20044;-77
2023/04/19 00:59:23;;;;;;;12.05;7.55;;;;;;;8.21;83.44;102745.44;4992771;28;20272;-77
2023/04/19 01:01:49;;;;;;;11.13;7.47;;;;;;;8.21;83.62;102753.25;4996334;28;20107;-77
2023/04/19 01:04:14;;;;;;;9.63;8.20;;;;;;;8.19;83.77;102751.53;4997007;28;20026;-77
2023/04/19 01:06:41;;;;;;;10.40;8.45;;;;;;;8.19;84.14;102741.97;4990458;28;20041;-77
2023/04/19 01:09:06;;;;;;;10.18;8.13;;;;;;;8.20;84.07;102742.81;4992896;28;20318;-77
2023/04/19 01:11:32;;;;;;;8.98;8.07;;;;;;;8.23;84.13;102751.50;4993910;28;20041;-77
2023/04/19 01:13:58;;;;;;;8.35;7.55;;;;;;;8.25;84.25;102738.47;4995418;28;20050;-77
2023/04/19 01:16:25;;;;;;;9.10;8.20;;;;;;;8.25;84.45;102736.72;4992033;28;20109;-77
2023/04/19 01:18:51;;;;;;;10.68;8.70;;;;;;;8.27;84.85;102739.34;4995530;28;20034;-77
2023/04/19 01:21:17;;;;;;;9.88;8.30;;;;;;;8.31;85.04;102730.63;4995938;28;20338;-77
2023/04/19 01:23:43;;;;;;;13.95;8.80;;;;;;;8.35;85.50;102732.38;4993327;28;20065;-77
2023/04/19 01:26:08;;;;;;;10.10;8.85;;;;;;;8.38;85.37;102729.75;4994048;28;20365;-77
2023/04/19 01:28:33;;;;;;;9.73;8.73;;;;;;;8.44;85.59;102734.13;4995043;28;20105;-77
2023/04/19 01:30:59;;;;;;;10.38;8.07;;;;;;;8.48;85.70;102734.97;4994792;28;20085;-77
2023/04/19 01:33:24;;;;;;;13.50;8.98;;;;;;;8.52;85.64;102729.75;4996061;28;20051;-77
2023/04/19 01:35:50;;;;;;;10.70;8.93;;;;;;;8.56;85.78;102725.41;4995146;28;20046;-77
2023/04/19 01:38:16;;;;;;;11.02;9.18;;;;;;;8.59;85.63;102730.63;4996069;28;20030;-77
2023/04/19 01:40:41;;;;;;;11.63;8.57;;;;;;;8.61;85.84;102728.88;4993792;28;20126;-77
2023/04/19 01:43:07;;;;;;;9.95;8.23;;;;;;;8.64;86.02;102721.91;4995739;28;20105;-77
2023/04/19 01:45:33;;;;;;;9.82;8.82;;;;;;;8.69;86.10;102728.84;4993827;28;20046;-77
2023/04/19 01:48:00;;;;;;;12.60;8.73;;;;;;;8.72;85.79;102721.03;4992834;28;20245;-77
2023/04/19 01:50:26;;;;;;;10.80;9.00;;;;;;;8.73;86.22;102725.34;4992309;28;20249;-77
2023/04/19 01:52:51;;;;;;;10.77;8.95;;;;;;;8.77;85.63;102724.50;4993553;28;20034;-78
2023/04/19 01:55:17;;;;;;;11.85;8.57;;;;;;;8.79;85.87;102726.22;4994330;28;20038;-77
2023/04/19 01:57:42;;;;;;;15.73;8.88;;;;;;;8.80;85.66;102730.59;4991949;28;20034;-77
2023/04/19 02:00:09;;;;;;;11.70;8.68;;;;;;;8.77;84.97;102727.97;4991884;28;20065;-77
2023/04/19 02:02:36;;;;;;;10.02;7.90;;;;;;;8.72;85.03;102723.63;4992926;28;20309;-77
2023/04/19 02:05:02;;;;;;;13.20;8.07;;;;;;;8.63;84.77;102730.59;4995167;28;20334;-77
2023/04/19 02:07:27;;;;;;;12.80;8.02;;;;;;;8.56;84.51;102726.28;4992125;28;20109;-76
2023/04/19 02:09:52;;;;;;;9.90;7.88;;;;;;;8.50;84.88;102728.03;4994062;28;20380;-75
2023/04/19 02:12:18;;;;;;;8.50;7.70;;;;;;;8.45;85.07;102721.06;4994971;28;20402;-75
2023/04/19 02:14:43;;;;;;;8.70;7.90;;;;;;;8.40;84.94;102721.91;4994863;28;20337;-75
2023/04/19 02:17:09;;;;;;;9.18;8.00;;;;;;;8.37;84.89;102722.81;4994685;28;20038;-75
2023/04/19 02:19:35;;;;;;;8.55;7.63;;;;;;;8.33;85.18;102713.25;4996205;28;20042;-75
2023/04/19 02:22:00;;;;;;;10.43;8.27;;;;;;;8.29;85.32;102715.84;4996387;28;20421;-75
2023/04/19 02:24:25;;;;;;;10.43;8.75;;;;;;;8.24;85.40;102718.44;4995581;28;20338;-75
2023/04/19 02:26:51;;;;;;;11.63;8.23;;;;;;;8.18;85.36;102716.72;4995856;28;20057;-75
2023/04/19 02:29:17;;;;;;;9.85;8.15;;;;;;;8.15;85.73;102721.97;4966726;28;20041;-75
2023/04/19 02:31:45;;;;;;;10.15;8.73;;;;;;;8.12;85.70;102718.47;4994414;28;20113;-75
2023/04/19 02:34:10;;;;;;;9.82;8.73;;;;;;;8.09;86.40;102724.56;4992779;28;20046;-75
2023/04/19 02:36:36;;;;;;;13.05;8.80;;;;;;;8.06;86.91;102720.22;4993399;28;20461;-75
2023/04/19 02:39:01;;;;;;;9.35;8.48;;;;;;;8.04;86.79;102721.06;4996108;28;20244;-75
2023/04/19 02:41:26;;;;;;;13.05;9.68;;;;;;;8.03;86.72;102722.81;4993256;28;20046;-75
2023/04/19 02:43:52;;;;;;;11.35;8.55;;;;;;;8.02;86.97;102726.31;4993256;28;20050;-75
2023/04/19 02:46:17;;;;;;;9.60;8.20;;;;;;;8.02;87.16;102726.31;4992830;28;20097;-75
2023/04/19 02:48:43;;;;;;;9.63;8.68;;;;;;;8.02;87.46;102730.63;4992835;28;20058;-75
2023/04/19 02:51:15;;;;;;;15.45;9.27;;;;;;;8.02;87.52;102728.91;4994021;28;20035;-75
2023/04/19 02:53:40;;;;;;;14.77;9.05;;;;;;;8.04;87.42;102724.56;4993699;28;20517;-75
2023/04/19 02:56:06;;;;;;;11.98;8.60;;;;;;;8.04;87.90;102721.97;4995569;28;20041;-75
2023/04/19 02:58:31;;;;;;;10.27;9.05;;;;;;;8.06;87.90;102719.34;4995073;28;20068;-75
2023/04/19 03:00:57;;;;;;;14.55;9.35;;;;;;;8.06;87.93;102724.56;4997744;28;20038;-75
2023/04/19 03:03:22;;;;;;;11.43;9.43;;;;;;;8.07;88.48;102731.50;4999637;28;20057;-75
2023/04/19 03:05:48;;;;;;;13.07;9.50;;;;;;;8.09;88.55;102724.56;4999202;28;20034;-75
2023/04/19 03:08:13;;;;;;;11.30;9.80;;;;;;;8.11;88.43;102727.16;4995955;28;20113;-75
2023/04/19 03:10:39;;;;;;;13.43;10.23;;;;;;;8.11;88.56;102728.03;4982112;28;20046;-75
2023/04/19 03:13:04;;;;;;;10.75;9.07;;;;;;;8.13;88.52;102731.53;4996259;28;20053;-75
2023/04/19 03:15:29;;;;;;;12.27;9.27;;;;;;;8.15;88.58;102729.78;4997345;28;20049;-75
2023/04/19 03:17:55;;;;;;;16.33;9.85;;;;;;;8.16;88.68;102723.69;4995984;28;20053;-75
2023/04/19 03:20:20;;;;;;;13.93;9.07;;;;;;;8.17;88.69;102727.19;4996862;28;20037;-75
2023/04/19 03:22:46;;;;;;;11.07;9.55;;;;;;;8.19;88.63;102730.66;4995949;28;20114;-75
2023/04/19 03:25:12;;;;;;;11.13;9.20;;;;;;;8.21;88.43;102729.78;4997838;28;20049;-75
2023/04/19 03:27:37;;;;;;;15.50;9.30;;;;;;;8.21;88.69;102728.91;4996319;28;20065;-75
2023/04/19 03:30:03;;;;;;;12.50;9.20;;;;;;;8.21;88.59;102716.72;4997617;28;20109;-75
2023/04/19 03:32:30;;;;;;;11.13;9.15;;;;;;;8.23;88.47;102720.19;4997801;28;20379;-75
2023/04/19 03:34:56;;;;;;;12.43;9.43;;;;;;;8.24;88.54;102715.84;4997335;28;20038;-75
2023/04/19 03:37:21;;;;;;;11.48;9.52;;;;;;;8.24;88.52;102710.63;4997527;28;20247;-75
2023/04/19 03:39:46;;;;;;;10.18;9.10;;;;;;;8.25;88.61;102714.97;4998321;28;20034;-75
2023/04/19 03:42:12;;;;;;;11.50;9.10;;;;;;;8.26;88.73;102711.50;4996718;28;20042;-75
2023/04/19 03:44:37;;;;;;;11.90;9.75;;;;;;;8.26;88.94;102708.91;4995548;28;20038;-75
2023/04/19 03:47:02;;;;;;;19.58;9.88;;;;;;;8.26;88.40;102711.50;4994710;28;20046;-75
2023/04/19 03:49:28;;;;;;;10.63;9.18;;;;;;;8.27;88.55;102708.00;4996087;28;20100;-75
2023/04/19 03:51:53;;;;;;;10.05;9.02;;;;;;;8.26;88.58;102711.50;4992788;28;20305;-75
2023/04/19 03:54:18;;;;;;;10.77;8.90;;;;;;;8.26;88.78;102712.38;4996411;28;20075;-75
2023/04/19 03:56:44;;;;;;;17.25;9.52;;;;;;;8.26;88.90;102708.91;4996020;28;20105;-75
2023/04/19 03:59:09;;;;;;;10.55;9.43;;;;;;;8.27;88.60;102708.88;4996352;28;20049;-75
2023/04/19 04:01:40;;;;;;;12.57;9.65;;;;;;;8.30;88.67;102710.63;4995938;28;20035;-75
2023/04/19 04:04:06;;;;;;;10.45;9.10;;;;;;;8.30;88.87;102717.59;4996472;28;20030;-75
2023/04/19 04:06:32;;;;;;;11.95;9.45;;;;;;;8.31;88.72;102722.78;4996327;28;20038;-75
2023/04/19 04:08:57;;;;;;;10.80;8.90;;;;;;;8.32;88.99;102711.50;4996786;28;20034;-75
2023/04/19 04:11:22;;;;;;;10.63;8.98;;;;;;;8.34;88.64;102711.50;4997254;28;20042;-75
2023/04/19 04:13:49;;;;;;;9.43;8.52;;;;;;;8.35;88.83;102721.03;4995543;28;20030;-75
2023/04/19 04:16:14;;;;;;;12.25;8.93;;;;;;;8.35;88.92;102716.72;4997911;28;20125;-75
2023/04/19 04:18:39;;;;;;;11.60;8.70;;;;;;;8.37;88.75;102716.72;4993405;28;20042;-75
2023/04/19 04:21:06;;;;;;;10.43;8.70;;;;;;;8.37;88.97;102714.09;4994530;28;20047;-75
2023/04/19 04:23:32;;;;;;;11.65;9.27;;;;;;;8.37;88.88;102717.56;4997668;28;20103;-75
2023/04/19 04:26:03;;;;;;;11.98;8.65;;;;;;;8.38;88.80;102723.66;4994101;28;20656;-75
2023/04/19 04:28:28;;;;;;;10.15;9.13;;;;;;;8.39;88.69;102721.06;4992864;28;20245;-75
2023/04/19 04:30:56;;;;;;;10.10;8.55;;;;;;;8.40;88.80;102722.81;4992812;28;20034;-75
2023/04/19 04:33:24;;;;;;;11.18;9.30;;;;;;;8.43;88.78;102724.56;4996555;28;20030;-75
2023/04/19 04:35:50;;;;;;;11.10;9.17;;;;;;;8.41;88.88;102716.69;4994967;28;20072;-75
2023/04/19 04:38:16;;;;;;;10.63;8.45;;;;;;;8.45;88.62;102726.28;4994699;28;20042;-75
2023/04/19 04:40:41;;;;;;;10.70;8.50;;;;;;;8.49;88.34;102723.69;4997107;28;20046;-75
2023/04/19 04:43:07;;;;;;;12.70;8.63;;;;;;;8.48;88.29;102721.94;4993528;28;20370;-75
2023/04/19 04:45:32;;;;;;;10.00;8.57;;;;;;;8.49;88.17;102726.28;4993301;28;20218;-75
2023/04/19 04:47:58;;;;;;;12.57;8.98;;;;;;;8.49;88.42;102737.59;4995717;28;20057;-75
2023/04/19 04:50:23;;;;;;;14.57;7.93;;;;;;;8.49;88.32;102727.16;4996652;28;20052;-75
2023/04/19 04:52:49;;;;;;;9.82;8.57;;;;;;;8.51;88.23;102727.16;4995006;28;20276;-75
2023/04/19 04:55:14;;;;;;;8.88;7.85;;;;;;;8.51;88.01;102740.22;4997470;28;20077;-75
2023/04/19 04:57:39;;;;;;;10.43;8.73;;;;;;;8.53;88.21;102738.47;4995061;28;20034;-75
2023/04/19 05:00:05;;;;;;;10.05;8.32;;;;;;;8.55;88.20;102742.81;4992385;28;20046;-75
2023/04/19 05:02:31;;;;;;;14.20;8.93;;;;;;;8.56;87.87;102743.69;4994986;28;20038;-75
2023/04/19 05:04:56;;;;;;;12.00;8.60;;;;;;;8.56;88.16;102733.25;4993534;28;20046;-75
2023/04/19 05:07:22;;;;;;;9.27;7.70;;;;;;;8.60;87.90;102748.03;4992296;28;20125;-75
2023/04/19 05:09:47;;;;;;;10.50;7.60;;;;;;;8.60;87.61;102738.47;4993600;28;20329;-75
2023/04/19 05:12:13;;;;;;;14.35;8.82;;;;;;;8.61;87.42;102731.50;4994173;28;20030;-75
2023/04/19 05:14:38;;;;;;;11.30;7.70;;;;;;;8.63;87.36;102737.59;4993219;28;20042;-75
2023/04/19 05:17:03;;;;;;;11.68;8.80;;;;;;;8.64;87.21;102736.69;4996886;28;20157;-75
2023/04/19 05:19:29;;;;;;;8.45;7.10;;;;;;;8.65;87.00;102739.31;4993139;28;20046;-75
2023/04/19 05:21:54;;;;;;;8.52;7.60;;;;;;;8.65;86.62;102722.78;4994884;28;20262;-75
2023/04/19 05:24:19;;;;;;;8.10;7.30;;;;;;;8.67;86.11;102739.31;4995726;28;20030;-75
2023/04/19 05:26:45;;;;;;;8.52;7.63;;;;;;;8.69;86.04;102734.09;4996191;28;20054;-75
2023/04/19 05:29:10;;;;;;;8.32;7.35;;;;;;;8.69;85.67;102741.91;4993067;28;20068;-75
2023/04/19 05:31:36;;;;;;;12.57;8.20;;;;;;;8.69;85.73;102736.69;4994668;28;20034;-75
2023/04/19 05:34:01;;;;;;;7.93;7.20;;;;;;;8.68;85.55;102742.78;4994146;28;20038;-75
2023/04/19 05:36:27;;;;;;;8.32;7.43;;;;;;;8.69;85.75;102741.91;4994198;28;20045;-75
2023/04/19 05:38:52;;;;;;;17.45;7.55;;;;;;;8.69;85.54;102750.63;4993363;28;20345;-75
2023/04/19 05:41:17;;;;;;;14.18;7.95;;;;;;;8.69;85.49;102742.78;4994359;28;20038;-75
2023/04/19 05:43:43;;;;;;;8.73;7.47;;;;;;;8.68;85.00;102743.66;4991757;28;20346;-75
2023/04/19 05:46:08;;;;;;;8.68;7.00;;;;;;;8.70;84.93;102751.50;4992020;28;20330;-75
2023/04/19 05:48:33;;;;;;;7.60;6.90;;;;;;;8.68;84.48;102746.28;4992624;28;20309;-75
2023/04/19 05:50:59;;;;;;;7.80;6.97;;;;;;;8.69;84.42;102749.75;4978072;28;20247;-75
2023/04/19 05:53:24;;;;;;;10.40;7.15;;;;;;;8.70;84.35;102752.38;4994084;28;20054;-75
2023/04/19 05:55:50;;;;;;;8.15;7.30;;;;;;;8.70;83.65;102751.50;4993309;28;20050;-75
2023/04/19 05:58:17;;;;;;;15.45;6.80;;;;;;;8.70;83.66;102752.38;4993337;28;20431;-75
2023/04/19 06:00:42;;;;;;;10.30;7.40;;;;;;;8.71;83.08;102763.69;4993559;28;20221;-75
2023/04/19 06:03:07;;;;;;;10.13;7.20;;;;;;;8.71;82.72;102766.28;4993493;28;20034;-75
2023/04/19 06:05:33;;;;;;;12.85;7.22;;;;;;;8.72;82.80;102760.22;4995299;28;20064;-75
2023/04/19 06:07:59;;;;;;;9.00;6.57;;;;;;;8.73;82.55;102760.22;4995521;28;20068;-75
2023/04/19 06:10:24;;;;;;;7.20;6.50;;;;;;;8.73;82.15;102767.16;4996462;28;20203;-75
2023/04/19 06:12:49;;;;;;;10.70;6.93;;;;;;;8.73;81.42;102764.53;4996295;28;20045;-75
2023/04/19 06:15:15;;;;;;;8.18;6.72;;;;;;;8.74;81.46;102761.06;4994264;28;20203;-75
2023/04/19 06:17:40;;;;;;;8.85;6.38;;;;;;;8.73;80.81;102765.44;4993197;28;20042;-75
2023/04/19 06:20:07;;;;;;;7.65;6.90;;;;;;;8.74;81.04;102761.94;4989724;28;20066;-75
2023/04/19 06:22:32;;;;;;;12.60;6.80;;;;;;;8.76;80.95;102767.16;4989418;28;20038;-75
2023/04/19 06:24:58;;;;;;;8.70;6.30;;;;;;;8.79;80.94;102769.78;4988915;28;20042;-75
2023/04/19 06:27:23;;;;;;;8.30;7.07;;;;;;;8.80;81.23;102769.78;4992651;28;20038;-75
2023/04/19 06:29:48;;;;;;;8.30;7.07;;;;;;;8.84;81.55;102774.09;4991506;28;20042;-75
2023/04/19 06:32:14;;;;;;;9.90;7.88;;;;;;;8.87;81.72;102774.97;4993362;28;20037;-76
2023/04/19 06:34:39;;;;;;;9.57;7.10;;;;;;;8.87;81.90;102773.22;4994929;28;20060;-76
2023/04/19 06:37:04;;;;;;;9.90;7.78;;;;;;;8.90;81.68;102773.22;4998407;28;20350;-76
2023/04/19 06:39:30;;;;;;;10.00;7.32;;;;;;;8.90;81.79;102775.84;4998602;28;20112;-76
2023/04/19 06:41:55;;;;;;;9.25;6.97;;;;;;;8.89;81.15;102771.47;4997528;28;20049;-76
2023/04/19 06:44:20;;;;;;;9.98;6.90;;;;;;;8.90;81.26;102772.34;4999267;28;20049;-76
2023/04/19 06:46:46;;;;;;;9.50;7.10;;;;;;;8.92;81.50;102770.59;4999303;28;20102;-76
2023/04/19 06:49:11;;;;;;;9.88;7.15;;;;;;;8.95;80.69;102767.97;4995196;28;20210;-76
2023/04/19 06:51:38;;;;;;;7.55;6.22;;;;;;;8.95;79.39;102773.19;4997055;28;20387;-76
2023/04/19 06:54:03;;;;;;;8.45;6.90;;;;;;;8.95;78.56;102767.97;4997381;28;20428;-76
2023/04/19 06:56:48;;;;;;;10.10;6.75;;;;;;;8.96;78.21;102767.97;4994327;28;20042;-76
2023/04/19 06:59:16;;;;;;;7.70;6.70;;;;;;;8.97;78.01;102769.72;4998506;28;20045;-75
2023/04/19 07:01:43;;;;;;;12.20;6.60;;;;;;;8.98;77.47;102768.81;4987290;28;20300;-76
2023/04/19 07:04:09;;;;;;;9.93;5.93;;;;;;;9.00;76.96;102774.94;4993536;28;20105;-76
2023/04/19 07:06:35;;;;;;;6.90;6.25;;;;;;;9.02;76.73;102773.19;4998845;28;20033;-76
2023/04/19 07:09:02;;;;;;;7.80;6.43;;;;;;;9.07;76.68;102772.28;4992588;28;20702;-75
2023/04/19 07:11:28;;;;;;;9.18;6.47;;;;;;;9.10;75.87;102772.28;4992976;28;20105;-76
2023/04/19 07:13:53;;;;;;;9.57;6.80;;;;;;;9.15;75.69;102768.78;4995508;28;20230;-76
2023/04/19 07:16:19;;;;;;;7.28;6.57;;;;;;;9.17;75.51;102774.00;4995653;28;20081;-76
2023/04/19 07:18:44;;;;;;;14.35;6.65;;;;;;;9.21;74.02;102762.66;4994227;28;20370;-76
2023/04/19 07:21:10;;;;;;;6.72;6.13;;;;;;;9.26;74.09;102768.75;4990282;28;20038;-76
2023/04/19 07:23:36;;;;;;;10.23;6.07;;;;;;;9.30;73.48;102765.22;4992120;28;20101;-76
2023/04/19 07:26:01;;;;;;;11.18;6.20;;;;;;;9.34;72.44;102771.31;4986190;28;20058;-76
2023/04/19 07:28:30;;;;;;;9.63;6.15;;;;;;;9.37;72.32;102769.56;4994722;28;20042;-76
2023/04/19 07:30:56;;;;;;;7.95;6.10;;;;;;;9.40;71.87;102773.88;4989859;28;20121;-76
2023/04/19 07:33:23;;;;;;;6.85;5.97;;;;;;;9.41;71.24;102771.28;4992126;28;20062;-76
2023/04/19 07:35:49;;;;;;;7.18;5.55;;;;;;;9.45;70.97;102766.03;4990738;28;20042;-76
2023/04/19 07:38:14;;;;;;;7.53;6.70;;;;;;;9.48;70.16;102771.22;4977329;28;20030;-76
2023/04/19 07:40:40;;;;;;;9.95;5.95;;;;;;;9.54;70.21;102771.22;4993188;28;20388;-76
2023/04/19 07:43:05;;;;;;;9.88;6.40;;;;;;;9.58;69.60;102758.09;4991286;28;20046;-76
2023/04/19 07:45:31;;;;;;;14.43;7.70;;;;;;;9.63;69.79;102759.84;4995082;28;20053;-76
2023/04/19 07:47:56;;;;;;;7.05;6.00;;;;;;;9.67;69.19;102756.31;4996186;28;20060;-76
2023/04/19 07:50:24;;;;;;;9.60;5.97;;;;;;;9.70;68.52;102757.16;4995653;28;20042;-76
2023/04/19 07:52:49;;;;;;;6.65;5.88;;;;;;;9.75;69.22;102752.78;4997308;28;20309;-76
2023/04/19 07:55:15;;;;;;;6.40;5.35;;;;;;;9.81;68.39;102759.72;4994218;28;20038;-76
2023/04/19 07:57:44;;;;;;;6.53;5.93;;;;;;;9.86;68.35;102755.31;4994272;28;20040;-76
2023/04/19 08:00:11;;;;;;;7.07;6.10;;;;;;;9.94;67.21;102757.88;4993203;28;20038;-76
2023/04/19 08:02:37;;;;;;;9.40;5.93;;;;;;;9.99;67.21;102756.09;4993025;28;20113;-76
2023/04/19 08:05:03;;;;;;;14.45;6.22;;;;;;;10.03;67.36;102757.81;4994907;28;20046;-76
2023/04/19 08:07:28;;;;;;;6.75;6.05;;;;;;;10.06;66.20;102755.16;4992908;28;20061;-77
2023/04/19 08:09:53;;;;;;;5.95;5.35;;;;;;;10.10;65.59;102753.41;4996473;28;20360;-76
2023/04/19 08:12:19;;;;;;;8.57;6.22;;;;;;;10.14;66.27;102761.19;4995227;28;20367;-76
2023/04/19 08:14:45;;;;;;;6.95;4.82;;;;;;;10.18;65.96;102755.03;4995159;28;20101;-76
2023/04/19 08:17:10;;;;;;;5.30;4.80;;;;;;;10.23;65.19;102754.16;4996754;28;20069;-76
2023/04/19 08:19:36;;;;;;;7.03;4.75;;;;;;;10.26;65.04;102751.50;4991640;28;20026;-76
2023/04/19 08:22:03;;;;;;;7.57;5.22;;;;;;;10.29;64.80;102741.00;4996518;28;20052;-76
2023/04/19 08:24:30;;;;;;;5.88;5.10;;;;;;;10.34;65.37;102758.44;4992318;28;20038;-76
2023/04/19 08:26:55;;;;;;;5.88;5.38;;;;;;;10.42;65.60;102747.88;4990962;28;20101;-76
2023/04/19 08:29:21;;;;;;;7.07;5.25;;;;;;;10.48;65.24;102745.22;4991796;28;20337;-76
2023/04/19 08:31:47;;;;;;;5.95;5.28;;;;;;;10.50;65.08;102740.84;4995440;28;20048;-76
2023/04/19 08:34:12;;;;;;;7.38;5.13;;;;;;;10.54;64.38;102736.44;4992943;28;20065;-76
2023/04/19 08:36:37;;;;;;;13.30;5.47;;;;;;;10.56;64.24;102746.00;4994338;28;20042;-77
2023/04/19 08:39:03;;;;;;;11.80;5.80;;;;;;;10.58;64.65;102732.88;4992722;28;20346;-76
2023/04/19 08:41:31;;;;;;;8.95;5.32;;;;;;;10.63;64.36;102743.34;4995657;28;20269;-76
2023/04/19 08:43:58;;;;;;;6.93;5.63;;;;;;;10.67;64.37;102737.16;4992508;28;20053;-76
2023/04/19 08:46:25;;;;;;;6.35;5.22;;;;;;;10.71;63.58;102738.88;4995929;28;20047;-76
2023/04/19 08:48:51;;;;;;;7.55;4.82;;;;;;;10.74;63.34;102744.94;4994666;28;20049;-76
2023/04/19 08:51:18;;;;;;;8.60;4.93;;;;;;;10.75;63.40;102738.84;4995319;28;20088;-76
2023/04/19 08:53:44;;;;;;;6.00;4.65;;;;;;;10.83;64.08;102743.13;4992208;28;20038;-76
2023/04/19 08:56:11;;;;;;;7.82;5.15;;;;;;;10.88;63.93;102742.19;4994808;28;20069;-76
2023/04/19 08:58:36;;;;;;;5.70;4.28;;;;;;;10.91;62.35;102742.16;4989584;28;20038;-76
2023/04/19 09:01:06;;;;;;;4.72;4.20;;;;;;;10.98;62.38;102736.81;4993170;28;20109;-76
2023/04/19 09:03:32;;;;;;;5.22;3.85;;;;;;;11.02;61.32;102741.13;4991026;28;20288;-76
2023/04/19 09:05:59;;;;;;;3.90;3.60;;;;;;;11.05;60.53;102736.72;4995678;28;20062;-76
2023/04/19 09:08:27;;;;;;;7.68;3.50;;;;;;;11.10;60.09;102739.31;4978183;28;20125;-76
2023/04/19 09:10:55;;;;;;;4.32;3.60;;;;;;;11.15;59.49;102737.47;4988888;28;20038;-76
2023/04/19 09:13:20;;;;;;;8.63;3.85;;;;;;;11.21;58.83;102737.41;4994524;28;20092;-76
2023/04/19 09:15:45;;;;;;;9.60;3.25;;;;;;;11.30;58.69;102729.41;4991865;28;20038;-76
2023/04/19 09:18:11;;;;;;;5.50;3.40;;;;;;;11.37;58.49;102729.31;4994913;28;20041;-76
2023/04/19 09:20:37;;;;;;;6.95;3.40;;;;;;;11.44;58.17;102725.72;4993205;28;20041;-76
2023/04/19 09:23:05;;;;;;;4.90;3.25;;;;;;;11.47;57.04;102737.03;4993742;28;20352;-76
2023/04/19 09:25:30;;;;;;;9.50;3.67;;;;;;;11.49;56.44;102732.63;4992761;28;20569;-76
2023/04/19 09:28:10;;;;;;;3.22;3.00;;;;;;;11.54;55.85;102732.59;4994329;28;20060;-76
2023/04/19 09:30:36;;;;;;;8.82;3.20;;;;;;;11.61;55.94;102733.38;4990796;28;20047;-76
2023/04/19 09:33:01;;;;;;;4.40;3.28;;;;;;;11.64;55.05;102733.31;4991862;28;20273;-76
2023/04/19 09:35:46;;;;;;;7.57;3.50;;;;;;;11.67;54.32;102722.78;4995128;28;20046;-76
2023/04/19 09:38:11;;;;;;;6.38;3.03;;;;;;;11.70;53.99;102728.84;4994213;28;20302;-76
2023/04/19 09:40:38;;;;;;;10.05;3.00;;;;;;;11.72;53.29;102726.19;4994086;28;20045;-76
2023/04/19 09:43:04;;;;;;;4.65;2.58;;;;;;;11.75;51.59;102720.91;4992690;28;20061;-76
2023/04/19 09:45:44;;;;;;;4.82;2.50;;;;;;;11.80;51.69;102715.56;4992517;28;20049;-76
2023/04/19 09:48:10;;;;;;;2.72;2.50;;;;;;;11.85;49.13;102716.38;4975622;28;20321;-76
2023/04/19 09:50:50;;;;;;;5.68;2.72;;;;;;;11.85;48.57;102716.38;4992301;28;20096;-76
2023/04/19 09:53:16;;;;;;;4.97;2.70;;;;;;;11.85;48.26;102717.22;4994031;28;20097;-76
2023/04/19 09:55:43;;;;;;;5.40;2.78;;;;;;;11.86;48.56;102718.09;4993740;28;20144;-76
2023/04/19 09:58:08;;;;;;;2.80;2.45;;;;;;;11.92;48.19;102710.16;4992963;28;20046;-76
2023/04/19 10:00:34;;;;;;;6.40;2.40;;;;;;;11.96;47.50;102708.34;4991428;28;20049;-76
2023/04/19 10:03:00;;;;;;;3.15;2.58;;;;;;;12.00;47.44;102704.78;4993795;28;20029;-76
2023/04/19 10:05:25;;;;;;;12.05;2.47;;;;;;;12.05;46.08;102711.69;4990873;28;20222;-76
2023/04/19 10:07:52;;;;;;;2.63;2.38;;;;;;;12.10;47.71;102709.00;4993149;28;20241;-76
2023/04/19 10:10:18;;;;;;;7.15;2.90;;;;;;;12.17;47.56;102710.63;4998525;28;20588;-76
2023/04/19 10:12:50;;;;;;;6.38;2.53;;;;;;;12.21;45.80;102707.03;4997562;28;20061;-76
2023/04/19 10:15:16;;;;;;;9.27;2.30;;;;;;;12.24;44.45;102714.88;4997372;28;20038;-76
2023/04/19 10:17:42;;;;;;;3.70;2.20;;;;;;;12.27;44.25;102698.16;4997131;28;20038;-76
2023/04/19 10:20:12;;;;;;;4.85;2.50;;;;;;;12.27;44.06;102695.53;4996636;28;20105;-76
2023/04/19 10:22:38;;;;;;;6.30;2.40;;;;;;;12.26;44.20;102702.56;4992624;28;20250;-77
2023/04/19 10:25:15;;;;;;;2.42;2.20;;;;;;;12.25;44.59;102695.56;4996711;28;20131;-76
2023/04/19 10:27:47;;;;;;;6.05;2.22;;;;;;;12.23;44.34;102693.88;4994571;28;20101;-76
2023/04/19 10:30:25;;;;;;;4.10;2.30;;;;;;;12.22;44.28;102692.97;4995849;28;20242;-76
2023/04/19 10:32:55;;;;;;;4.80;2.47;;;;;;;12.23;44.49;102693.88;4995590;28;20026;-76
2023/04/19 10:35:33;;;;;;;2.92;2.72;;;;;;;12.27;45.41;102700.78;4993229;28;20046;-76
2023/04/19 10:38:15;;;;;;;3.50;2.28;;;;;;;12.32;43.81;102696.34;4993793;28;20042;-76
2023/04/19 10:40:53;;;;;;;5.88;1.90;;;;;;;12.35;44.32;102684.88;4986075;28;20070;-76
2023/04/19 10:43:20;;;;;;;2.38;1.90;;;;;;;12.40;45.48;102680.41;4992834;28;20380;-76
2023/04/19 10:45:46;;;;;;;2.35;2.13;;;;;;;12.51;45.32;102688.09;4990933;28;20042;-76
2023/04/19 10:48:32;;;;;;;6.43;1.85;;;;;;;12.57;44.59;102698.47;4993930;28;20053;-76
2023/04/19 10:51:13;;;;;;;5.75;1.58;;;;;;;12.57;44.55;102685.34;4991192;28;20045;-76
2023/04/19 10:53:49;;;;;;;1.45;1.35;;;;;;;12.62;45.76;102688.75;4993534;28;20035;-76
2023/04/19 10:56:16;;;;;;;7.43;2.08;;;;;;;12.66;44.17;102691.28;4995436;28;20361;-76
2023/04/19 10:59:06;;;;;;;1.40;1.30;;;;;;;12.68;44.30;102686.00;4991560;28;20034;-76
2023/04/19 11:01:43;;;;;;;1.40;1.30;;;;;;;12.71;43.82;102679.81;4990317;28;20031;-76
2023/04/19 11:04:20;;;;;;;1.50;1.40;;;;;;;12.75;43.88;102676.22;4995630;28;20337;-75
2023/04/19 11:06:52;;;;;;;1.92;1.55;;;;;;;12.81;44.10;102676.13;4994359;28;20133;-76
2023/04/19 11:09:45;;;;;;;2.28;1.60;;;;;;;12.84;44.50;102678.66;4992933;28;20425;-76
2023/04/19 11:12:12;;;;;;;1.77;1.50;;;;;;;12.81;43.58;102673.50;4988076;28;20313;-76
2023/04/19 11:14:43;;;;;;;6.28;1.50;;;;;;;12.83;44.13;102674.31;4991658;28;20513;-76
2023/04/19 11:17:25;;;;;;;1.83;1.40;;;;;;;12.74;42.09;102672.75;4995337;28;20049;-76
2023/04/19 11:19:59;;;;;;;3.50;1.70;;;;;;;12.64;42.36;102673.81;4994238;28;20034;-76
2023/04/19 11:22:30;;;;;;;1.92;1.80;;;;;;;12.64;42.87;102669.44;4995985;28;20034;-76
2023/04/19 11:24:55;;;;;;;4.75;1.75;;;;;;;12.63;41.95;102669.47;4996864;28;20073;-76